createdAt,value
2023-05-02T00:01:15.183Z,11.00
2023-05-02T00:03:42.881Z,11.60
2023-05-02T00:06:11.343Z,11.07
2023-05-02T00:08:38.154Z,20.38
2023-05-02T00:11:05.437Z,15.02
2023-05-02T00:13:32.113Z,15.93
2023-05-02T00:15:58.772Z,10.18
2023-05-02T00:18:25.603Z,12.45
2023-05-02T00:20:52.251Z,15.30
2023-05-02T00:23:18.892Z,11.13
2023-05-02T00:25:46.520Z,15.60
2023-05-02T00:28:13.889Z,14.25
2023-05-02T00:30:47.037Z,12.60
2023-05-02T00:33:15.222Z,12.75
2023-05-02T00:35:42.131Z,11.48
2023-05-02T00:38:09.124Z,13.88
2023-05-02T00:40:46.367Z,13.45
2023-05-02T00:43:13.510Z,13.55
2023-05-02T00:45:41.892Z,15.90
2023-05-02T00:48:09.282Z,14.35
2023-05-02T00:50:41.177Z,15.10
2023-05-02T00:53:09.734Z,15.10
2023-05-02T00:55:36.961Z,13.50
2023-05-02T00:58:08.610Z,17.08
2023-05-02T01:00:41.591Z,14.15
2023-05-02T01:03:32.016Z,13.98
2023-05-02T01:06:16.619Z,14.25
2023-05-02T01:09:17.589Z,18.58
2023-05-02T01:12:14.442Z,14.88
2023-05-02T01:14:50.759Z,15.63
2023-05-02T01:17:19.777Z,14.32
2023-05-02T01:19:57.209Z,14.25
2023-05-02T01:22:26.966Z,12.75
2023-05-02T01:25:11.567Z,14.50
2023-05-02T01:28:01.337Z,14.20
2023-05-02T01:30:30.911Z,12.18
2023-05-02T01:32:59.315Z,14.20
2023-05-02T01:35:27.768Z,11.45
2023-05-02T01:37:57.564Z,17.75
2023-05-02T01:40:26.371Z,13.63
2023-05-02T01:42:54.363Z,14.70
2023-05-02T01:45:22.981Z,13.57
2023-05-02T01:47:51.292Z,15.80
2023-05-02T01:50:23.240Z,12.65
2023-05-02T01:52:52.891Z,18.08
2023-05-02T01:55:20.522Z,16.52
2023-05-02T01:57:48.631Z,17.65
2023-05-02T02:00:18.435Z,14.13
2023-05-02T02:02:47.563Z,13.68
2023-05-02T02:05:14.632Z,14.00
2023-05-02T02:07:41.594Z,12.70
2023-05-02T02:10:08.728Z,14.25
2023-05-02T02:12:54.762Z,13.13
2023-05-02T02:15:35.080Z,15.90
2023-05-02T02:18:09.774Z,14.68
2023-05-02T02:20:36.846Z,13.60
2023-05-02T02:23:07.348Z,16.27
2023-05-02T02:25:35.936Z,13.23
2023-05-02T02:28:02.696Z,14.93
2023-05-02T02:30:29.474Z,19.50
2023-05-02T02:32:56.252Z,13.20
2023-05-02T02:35:23.636Z,15.18
2023-05-02T02:38:07.798Z,14.77
2023-05-02T02:41:06.832Z,17.23
2023-05-02T02:43:40.870Z,11.73
2023-05-02T02:46:34.161Z,15.30
2023-05-02T02:49:18.796Z,12.70
2023-05-02T02:52:24.816Z,12.27
2023-05-02T02:55:06.292Z,12.95
2023-05-02T02:57:32.971Z,13.32
2023-05-02T03:00:24.864Z,12.60
2023-05-02T03:02:53.285Z,13.57
2023-05-02T03:05:22.168Z,13.80
2023-05-02T03:07:49.234Z,14.07
2023-05-02T03:10:16.438Z,14.27
2023-05-02T03:12:43.633Z,14.93
2023-05-02T03:15:30.593Z,16.48
2023-05-02T03:17:57.265Z,17.70
2023-05-02T03:20:23.971Z,19.55
2023-05-02T03:22:50.620Z,19.38
2023-05-02T03:25:17.260Z,17.45
2023-05-02T03:27:43.924Z,19.40
2023-05-02T03:30:10.813Z,14.65
2023-05-02T03:32:37.527Z,14.45
2023-05-02T03:35:04.473Z,16.13
2023-05-02T03:37:31.100Z,14.30
2023-05-02T03:39:58.071Z,14.20
2023-05-02T03:42:24.891Z,14.38
2023-05-02T03:44:54.473Z,14.30
2023-05-02T03:47:21.107Z,12.95
2023-05-02T03:49:47.787Z,14.48
2023-05-02T03:52:14.468Z,14.52
2023-05-02T03:54:41.673Z,11.27
2023-05-02T03:57:08.833Z,12.32
2023-05-02T03:59:35.530Z,13.35
2023-05-02T04:02:02.315Z,9.77
2023-05-02T04:04:29.038Z,10.85
2023-05-02T04:06:55.756Z,13.60
2023-05-02T04:09:25.351Z,12.45
2023-05-02T04:11:52.347Z,12.60
2023-05-02T04:14:19.125Z,12.48
2023-05-02T04:16:52.416Z,10.88
2023-05-02T04:19:19.480Z,12.65
2023-05-02T04:21:46.394Z,12.75
2023-05-02T04:24:13.846Z,14.02
2023-05-02T04:26:40.918Z,13.30
2023-05-02T04:29:07.805Z,11.85
2023-05-02T04:31:35.057Z,14.50
2023-05-02T04:34:01.917Z,13.25
2023-05-02T04:36:28.600Z,11.02
2023-05-02T04:38:55.536Z,12.63
2023-05-02T04:41:23.102Z,12.82
2023-05-02T04:43:49.823Z,14.38
2023-05-02T04:46:18.318Z,13.40
2023-05-02T04:48:45.078Z,13.82
2023-05-02T04:51:11.801Z,12.35
2023-05-02T04:53:38.687Z,14.82
2023-05-02T04:56:05.856Z,16.08
2023-05-02T04:58:32.840Z,12.75
2023-05-02T05:00:59.522Z,13.50
2023-05-02T05:03:26.393Z,15.57
2023-05-02T05:05:53.128Z,13.43
2023-05-02T05:08:19.757Z,15.25
2023-05-02T05:10:46.446Z,15.73
2023-05-02T05:13:13.882Z,14.13
2023-05-02T05:15:40.565Z,14.13
2023-05-02T05:18:07.348Z,16.67
2023-05-02T05:20:34.024Z,15.65
2023-05-02T05:23:00.711Z,18.00
2023-05-02T05:25:27.647Z,19.55
2023-05-02T05:27:55.873Z,14.98
2023-05-02T05:30:22.804Z,15.77
2023-05-02T05:32:49.491Z,13.60
2023-05-02T05:35:16.419Z,14.98
2023-05-02T05:37:43.909Z,13.45
2023-05-02T05:40:10.771Z,20.02
2023-05-02T05:42:37.484Z,16.15
2023-05-02T05:45:04.423Z,21.13
2023-05-02T05:47:31.195Z,18.45
2023-05-02T05:49:58.176Z,18.20
2023-05-02T05:52:25.226Z,18.48
2023-05-02T05:54:57.988Z,16.23
2023-05-02T05:57:24.908Z,18.48
2023-05-02T05:59:51.956Z,20.67
2023-05-02T06:02:19.806Z,17.10
2023-05-02T06:04:46.931Z,19.52
2023-05-02T06:07:13.769Z,19.67
2023-05-02T06:09:40.564Z,17.45
2023-05-02T06:12:07.401Z,19.23
2023-05-02T06:14:34.126Z,19.10
2023-05-02T06:17:00.860Z,17.55
2023-05-02T06:19:27.614Z,21.42
2023-05-02T06:21:54.270Z,17.45
2023-05-02T06:24:21.009Z,19.08
2023-05-02T06:26:47.675Z,22.55
2023-05-02T06:29:14.336Z,23.15
2023-05-02T06:31:41.042Z,22.45
2023-05-02T06:34:07.918Z,18.20
2023-05-02T06:36:34.573Z,18.50
2023-05-02T06:39:01.436Z,21.05
2023-05-02T06:41:28.099Z,23.70
2023-05-02T06:43:54.754Z,18.67
2023-05-02T06:46:21.565Z,20.50
2023-05-02T06:48:48.807Z,15.63
2023-05-02T06:51:15.591Z,18.70
2023-05-02T06:53:42.242Z,22.15
2023-05-02T06:56:08.904Z,19.17
2023-05-02T06:58:35.557Z,17.10
2023-05-02T07:01:02.297Z,19.23
2023-05-02T07:03:29.062Z,14.07
2023-05-02T07:05:55.775Z,16.42
2023-05-02T07:08:23.889Z,15.90
2023-05-02T07:10:50.877Z,14.43
2023-05-02T07:13:17.518Z,15.70
2023-05-02T07:15:44.207Z,13.88
2023-05-02T07:18:10.996Z,19.35
2023-05-02T07:20:38.911Z,16.65
2023-05-02T07:23:05.562Z,14.98
2023-05-02T07:25:32.315Z,19.17
2023-05-02T07:27:58.967Z,15.82
2023-05-02T07:30:25.774Z,17.00
2023-05-02T07:32:52.459Z,13.95
2023-05-02T07:35:19.269Z,16.92
2023-05-02T07:37:46.303Z,17.15
2023-05-02T07:40:13.135Z,19.13
2023-05-02T07:42:41.836Z,19.92
2023-05-02T07:45:09.192Z,12.05
2023-05-02T07:47:36.201Z,16.90
2023-05-02T07:50:06.397Z,15.85
2023-05-02T07:52:33.077Z,15.85
2023-05-02T07:54:59.729Z,13.30
2023-05-02T07:57:26.898Z,13.68
2023-05-02T07:59:53.730Z,15.85
2023-05-02T08:02:21.631Z,13.50
2023-05-02T08:04:49.203Z,12.93
2023-05-02T08:07:16.767Z,12.75
2023-05-02T08:09:43.480Z,13.77
2023-05-02T08:12:10.157Z,12.73
2023-05-02T08:14:36.862Z,14.95
2023-05-02T08:17:03.525Z,14.52
2023-05-02T08:19:30.252Z,11.68
2023-05-02T08:21:56.930Z,14.10
2023-05-02T08:24:23.746Z,14.52
2023-05-02T08:26:50.845Z,12.65
2023-05-02T08:29:17.598Z,20.88
2023-05-02T08:31:44.429Z,11.18
2023-05-02T08:34:11.243Z,12.80
2023-05-02T08:36:37.952Z,9.38
2023-05-02T08:39:04.733Z,9.50
2023-05-02T08:41:31.451Z,12.45
2023-05-02T08:43:59.989Z,9.80
2023-05-02T08:46:29.138Z,10.60
2023-05-02T08:48:59.043Z,12.23
2023-05-02T08:51:28.851Z,13.15
2023-05-02T08:53:57.263Z,12.45
2023-05-02T08:56:25.214Z,10.20
2023-05-02T08:58:52.117Z,9.85
2023-05-02T09:01:22.494Z,10.27
2023-05-02T09:03:49.696Z,10.23
2023-05-02T09:06:18.750Z,9.73
2023-05-02T09:08:49.199Z,10.82
2023-05-02T09:11:16.906Z,10.77
2023-05-02T09:13:51.744Z,13.18
2023-05-02T09:16:22.912Z,9.02
2023-05-02T09:18:57.507Z,9.40
2023-05-02T09:21:26.620Z,15.85
2023-05-02T09:23:55.985Z,10.68
2023-05-02T09:26:32.259Z,16.67
2023-05-02T09:29:01.258Z,16.48
2023-05-02T09:34:16.188Z,10.30
2023-05-02T09:36:51.238Z,8.00
2023-05-02T09:39:20.136Z,7.97
2023-05-02T09:41:48.301Z,6.05
2023-05-02T09:44:18.419Z,6.93
2023-05-02T09:46:47.681Z,7.95
2023-05-02T09:49:15.150Z,9.70
2023-05-02T09:51:43.926Z,12.93
2023-05-02T09:54:10.910Z,9.32
2023-05-02T09:56:57.267Z,7.05
2023-05-02T09:59:24.693Z,12.57
2023-05-02T10:01:59.661Z,10.00
2023-05-02T10:04:27.843Z,7.27
2023-05-02T10:06:55.484Z,7.65
2023-05-02T10:09:22.716Z,7.82
2023-05-02T10:11:56.414Z,7.75
2023-05-02T10:14:29.518Z,11.60
2023-05-02T10:17:09.206Z,10.35
2023-05-02T10:19:48.615Z,7.65
2023-05-02T10:22:19.198Z,5.97
2023-05-02T10:24:49.408Z,7.22
2023-05-02T10:27:16.346Z,8.25
2023-05-02T10:29:43.931Z,11.88
2023-05-02T10:32:11.261Z,9.07
2023-05-02T10:34:40.507Z,6.70
2023-05-02T10:37:07.458Z,9.75
2023-05-02T10:39:34.350Z,8.75
2023-05-02T10:42:03.070Z,6.15
2023-05-02T10:44:36.509Z,5.72
2023-05-02T10:47:22.491Z,9.05
2023-05-02T10:49:52.466Z,5.03
2023-05-02T10:52:41.447Z,10.20
2023-05-02T10:55:18.137Z,10.75
2023-05-02T10:58:00.195Z,12.93
2023-05-02T11:00:30.105Z,10.07
2023-05-02T11:02:57.153Z,8.15
2023-05-02T11:05:25.453Z,13.50
2023-05-02T11:08:19.426Z,12.02
2023-05-02T11:10:47.290Z,9.02
2023-05-02T11:13:14.149Z,8.57
2023-05-02T11:15:40.850Z,10.77
2023-05-02T11:18:12.816Z,8.95
2023-05-02T11:20:44.352Z,9.68
2023-05-02T11:23:17.076Z,9.57
2023-05-02T11:25:48.933Z,10.30
2023-05-02T11:28:37.415Z,8.27
2023-05-02T11:31:05.638Z,12.02
2023-05-02T11:33:32.449Z,7.78
2023-05-02T11:35:59.247Z,13.38
2023-05-02T11:38:34.656Z,8.43
2023-05-02T11:41:02.903Z,7.68
2023-05-02T11:43:31.791Z,9.10
2023-05-02T11:46:01.577Z,7.32
2023-05-02T11:48:28.940Z,9.73
2023-05-02T11:50:58.380Z,8.68
2023-05-02T11:53:26.672Z,22.40
2023-05-02T11:56:01.355Z,33.20
2023-05-02T11:58:30.133Z,10.90
2023-05-02T12:00:57.146Z,7.22
2023-05-02T12:03:32.070Z,11.52
2023-05-02T12:06:12.777Z,8.87
2023-05-02T12:08:40.718Z,11.48
2023-05-02T12:11:07.494Z,9.07
2023-05-02T12:13:34.332Z,10.73
2023-05-02T12:16:01.531Z,15.50
2023-05-02T12:18:28.536Z,12.95
2023-05-02T12:20:56.311Z,12.48
2023-05-02T12:23:26.203Z,10.73
2023-05-02T12:25:53.001Z,7.82
2023-05-02T12:28:20.493Z,9.43
2023-05-02T12:30:49.620Z,9.32
2023-05-02T12:33:17.325Z,5.53
2023-05-02T12:35:48.114Z,7.75
2023-05-02T12:38:23.679Z,6.18
2023-05-02T12:40:57.630Z,6.57
2023-05-02T12:43:24.491Z,7.60
2023-05-02T12:46:08.765Z,9.93
2023-05-02T12:48:35.424Z,13.40
2023-05-02T12:51:02.152Z,5.70
2023-05-02T12:53:40.577Z,9.30
2023-05-02T12:56:08.219Z,11.38
2023-05-02T12:58:46.523Z,5.88
2023-05-02T13:01:15.084Z,5.35
2023-05-02T13:03:43.325Z,5.60
2023-05-02T13:06:10.993Z,5.32
2023-05-02T13:08:37.922Z,4.55
2023-05-02T13:11:04.998Z,5.35
2023-05-02T13:13:32.618Z,2.67
2023-05-02T13:15:59.464Z,6.75
2023-05-02T13:18:28.028Z,5.93
2023-05-02T13:20:54.894Z,4.72
2023-05-02T13:23:21.750Z,3.50
2023-05-02T13:25:48.411Z,4.70
2023-05-02T13:28:15.357Z,4.93
2023-05-02T13:30:42.250Z,5.47
2023-05-02T13:33:09.310Z,6.20
2023-05-02T13:35:36.282Z,5.50
2023-05-02T13:38:03.520Z,6.53
2023-05-02T13:40:30.389Z,8.07
2023-05-02T13:42:57.466Z,8.82
2023-05-02T13:45:24.237Z,6.95
2023-05-02T13:47:51.033Z,11.20
2023-05-02T13:50:17.827Z,29.42
2023-05-02T13:52:46.996Z,12.95
2023-05-02T13:55:15.155Z,13.02
2023-05-02T13:57:41.808Z,9.63
2023-05-02T14:00:09.873Z,7.00
2023-05-02T14:02:37.363Z,8.15
2023-05-02T14:05:04.362Z,5.88
2023-05-02T14:07:31.002Z,5.55
2023-05-02T14:09:57.675Z,5.60
2023-05-02T14:12:24.393Z,4.85
2023-05-02T14:14:51.036Z,6.57
2023-05-02T14:17:17.664Z,6.43
2023-05-02T14:19:44.349Z,7.68
2023-05-02T14:22:10.993Z,6.30
2023-05-02T14:24:37.646Z,6.90
2023-05-02T14:27:04.763Z,6.65
2023-05-02T14:29:31.506Z,6.47
2023-05-02T14:31:58.262Z,5.40
2023-05-02T14:34:26.886Z,5.28
2023-05-02T14:36:53.692Z,7.78
2023-05-02T14:39:20.435Z,7.45
2023-05-02T14:41:47.391Z,6.78
2023-05-02T14:44:14.023Z,6.82
2023-05-02T14:46:41.352Z,6.60
2023-05-02T14:49:08.146Z,9.73
2023-05-02T14:51:37.024Z,7.03
2023-05-02T14:54:04.463Z,6.30
2023-05-02T14:56:31.197Z,7.95
2023-05-02T14:58:57.856Z,4.20
2023-05-02T15:01:24.934Z,6.28
2023-05-02T15:04:05.886Z,8.57
2023-05-02T15:06:35.628Z,6.38
2023-05-02T15:09:02.819Z,5.72
2023-05-02T15:11:29.486Z,6.15
2023-05-02T15:13:58.423Z,5.82
2023-05-02T15:16:27.378Z,5.32
2023-05-02T15:18:54.410Z,5.35
2023-05-02T15:21:21.423Z,4.97
2023-05-02T15:23:48.075Z,5.70
2023-05-02T15:26:14.809Z,4.90
2023-05-02T15:28:41.547Z,4.03
2023-05-02T15:31:08.376Z,3.47
2023-05-02T15:33:35.040Z,5.30
2023-05-02T15:36:01.703Z,5.65
2023-05-02T15:38:28.394Z,4.57
2023-05-02T15:40:55.928Z,4.85
2023-05-02T15:43:22.752Z,6.80
2023-05-02T15:45:59.494Z,8.82
2023-05-02T15:48:30.941Z,6.80
2023-05-02T15:50:57.769Z,4.05
2023-05-02T15:53:24.491Z,6.25
2023-05-02T15:55:52.097Z,4.15
2023-05-02T15:58:19.345Z,3.80
2023-05-02T16:00:49.700Z,5.65
2023-05-02T16:03:16.420Z,4.70
2023-05-02T16:05:43.141Z,5.65
2023-05-02T16:08:10.086Z,7.63
2023-05-02T16:10:39.162Z,4.00
2023-05-02T16:13:06.009Z,6.28
2023-05-02T16:15:32.671Z,6.22
2023-05-02T16:17:59.403Z,8.27
2023-05-02T16:20:26.684Z,2.95
2023-05-02T16:22:53.360Z,6.75
2023-05-02T16:25:20.252Z,5.75
2023-05-02T16:27:47.061Z,4.75
2023-05-02T16:30:13.965Z,5.65
2023-05-02T16:32:40.935Z,7.63
2023-05-02T16:35:10.672Z,3.30
2023-05-02T16:37:37.490Z,4.30
2023-05-02T16:40:05.960Z,4.70
2023-05-02T16:42:33.146Z,5.45
2023-05-02T16:44:59.874Z,3.05
2023-05-02T16:47:27.903Z,2.92
2023-05-02T16:49:56.064Z,3.50
2023-05-02T16:52:22.775Z,3.58
2023-05-02T16:54:49.590Z,4.10
2023-05-02T16:57:19.755Z,5.15
2023-05-02T16:59:51.668Z,3.00
2023-05-02T17:02:20.811Z,2.72
2023-05-02T17:04:49.375Z,5.43
2023-05-02T17:07:16.484Z,4.63
2023-05-02T17:09:44.356Z,2.42
2023-05-02T17:12:12.125Z,2.88
2023-05-02T17:14:41.013Z,1.98
2023-05-02T17:17:07.855Z,3.35
2023-05-02T17:19:34.909Z,2.80
2023-05-02T17:22:02.321Z,2.47
2023-05-02T17:24:29.948Z,3.83
2023-05-02T17:26:56.941Z,2.30
2023-05-02T17:29:23.733Z,4.50
2023-05-02T17:31:50.523Z,3.05
2023-05-02T17:34:17.276Z,4.40
2023-05-02T17:36:44.669Z,4.40
2023-05-02T17:39:13.030Z,2.78
2023-05-02T17:41:39.658Z,3.85
2023-05-02T17:44:06.396Z,4.97
2023-05-02T17:46:33.433Z,3.38
2023-05-02T17:49:00.852Z,1.65
2023-05-02T17:51:28.138Z,4.10
2023-05-02T17:53:54.912Z,2.85
2023-05-02T17:56:21.804Z,2.75
2023-05-02T17:58:48.564Z,6.13
2023-05-02T18:01:15.731Z,3.03
2023-05-02T18:03:43.382Z,3.20
2023-05-02T18:06:15.836Z,5.22
2023-05-02T18:08:43.249Z,2.85
2023-05-02T18:11:17.754Z,4.35
2023-05-02T18:13:44.608Z,7.88
2023-05-02T18:16:12.429Z,5.32
2023-05-02T18:18:39.608Z,5.13
2023-05-02T18:21:06.472Z,4.38
2023-05-02T18:23:33.807Z,5.07
2023-05-02T18:26:00.532Z,3.83
2023-05-02T18:28:27.352Z,8.10
2023-05-02T18:30:53.962Z,5.13
2023-05-02T18:33:20.880Z,6.28
2023-05-02T18:35:50.968Z,3.63
2023-05-02T18:38:18.153Z,6.38
2023-05-02T18:40:45.056Z,4.55
2023-05-02T18:43:11.769Z,2.80
2023-05-02T18:45:38.600Z,3.53
2023-05-02T18:48:05.565Z,5.65
2023-05-02T18:50:32.332Z,11.50
2023-05-02T18:52:58.980Z,6.38
2023-05-02T18:55:25.798Z,7.78
2023-05-02T18:57:52.464Z,6.63
2023-05-02T19:00:20.420Z,3.75
2023-05-02T19:02:47.587Z,5.28
2023-05-02T19:05:14.904Z,6.57
2023-05-02T19:07:41.644Z,3.58
2023-05-02T19:10:08.709Z,7.47
2023-05-02T19:12:35.377Z,5.75
2023-05-02T19:15:03.039Z,6.97
2023-05-02T19:17:30.072Z,4.85
2023-05-02T19:19:58.268Z,6.57
2023-05-02T19:22:27.470Z,15.30
2023-05-02T19:24:54.340Z,6.22
2023-05-02T19:27:21.266Z,19.40
2023-05-02T19:29:47.920Z,10.23
2023-05-02T19:32:15.024Z,6.90
2023-05-02T19:34:42.017Z,6.82
2023-05-02T19:37:08.824Z,7.60
2023-05-02T19:39:35.716Z,12.15
2023-05-02T19:42:03.120Z,15.85
2023-05-02T19:44:30.055Z,5.35
2023-05-02T19:46:56.879Z,8.02
2023-05-02T19:49:23.560Z,9.48
2023-05-02T19:51:50.451Z,10.52
2023-05-02T19:54:17.160Z,9.88
2023-05-02T19:56:44.293Z,7.20
2023-05-02T19:59:11.033Z,6.38
2023-05-02T20:01:37.837Z,6.50
2023-05-02T20:04:04.556Z,6.20
2023-05-02T20:06:32.232Z,11.07
2023-05-02T20:08:59.074Z,8.90
2023-05-02T20:11:26.220Z,9.25
2023-05-02T20:13:54.267Z,9.50
2023-05-02T20:16:21.148Z,11.80
2023-05-02T20:18:47.989Z,9.18
2023-05-02T20:21:14.906Z,9.38
2023-05-02T20:23:43.336Z,10.68
2023-05-02T20:26:10.316Z,13.05
2023-05-02T20:28:37.827Z,10.68
2023-05-02T20:31:04.730Z,8.30
2023-05-02T20:33:43.745Z,11.55
2023-05-02T20:36:12.803Z,10.75
2023-05-02T20:38:42.130Z,13.63
2023-05-02T20:41:12.443Z,9.82
2023-05-02T20:43:40.196Z,8.70
2023-05-02T20:46:11.878Z,8.77
2023-05-02T20:48:38.871Z,11.73
2023-05-02T20:51:05.663Z,9.52
2023-05-02T20:53:32.293Z,12.10
2023-05-02T20:55:58.927Z,10.50
2023-05-02T20:58:26.205Z,9.82
2023-05-02T21:00:53.980Z,10.98
2023-05-02T21:03:21.355Z,9.98
2023-05-02T21:05:55.938Z,13.15
2023-05-02T21:08:23.089Z,14.32
2023-05-02T21:10:49.847Z,14.27
2023-05-02T21:13:16.555Z,10.25
2023-05-02T21:15:43.443Z,10.00
2023-05-02T21:18:10.203Z,10.27
2023-05-02T21:20:38.158Z,12.52
2023-05-02T21:23:04.907Z,12.20
2023-05-02T21:25:31.606Z,10.48
2023-05-02T21:27:58.274Z,10.40
2023-05-02T21:30:24.994Z,10.82
2023-05-02T21:32:51.747Z,10.18
2023-05-02T21:35:18.438Z,12.73
2023-05-02T21:37:45.221Z,14.50
2023-05-02T21:40:12.462Z,13.57
2023-05-02T21:42:39.257Z,10.88
2023-05-02T21:45:06.859Z,11.70
2023-05-02T21:47:33.642Z,13.07
2023-05-02T21:50:00.704Z,14.45
2023-05-02T21:52:28.103Z,11.23
2023-05-02T21:54:54.767Z,17.20
2023-05-02T21:57:21.413Z,17.83
2023-05-02T21:59:48.125Z,13.70
2023-05-02T22:02:14.983Z,14.18
2023-05-02T22:04:41.775Z,12.88
2023-05-02T22:07:08.514Z,16.65
2023-05-02T22:09:35.244Z,19.63
2023-05-02T22:12:02.929Z,14.63
2023-05-02T22:14:37.590Z,10.32
2023-05-02T22:17:11.219Z,11.30
2023-05-02T22:19:39.207Z,13.02
2023-05-02T22:22:06.536Z,14.48
2023-05-02T22:24:33.585Z,17.23
2023-05-02T22:27:00.222Z,11.70
2023-05-02T22:29:26.963Z,12.23
2023-05-02T22:31:53.628Z,15.90
2023-05-02T22:34:20.365Z,17.27
2023-05-02T22:36:47.071Z,14.18
2023-05-02T22:39:15.650Z,10.98
2023-05-02T22:41:43.185Z,12.68
2023-05-02T22:44:11.037Z,15.02
2023-05-02T22:46:38.619Z,16.77
2023-05-02T22:49:07.629Z,17.27
2023-05-02T22:51:34.315Z,14.50
2023-05-02T22:54:03.067Z,11.75
2023-05-02T22:56:29.706Z,17.17
2023-05-02T22:58:56.462Z,11.13
2023-05-02T23:01:23.139Z,19.05
2023-05-02T23:03:50.079Z,19.50
2023-05-02T23:06:17.160Z,16.02
2023-05-02T23:08:43.913Z,17.90
2023-05-02T23:11:10.633Z,12.15
2023-05-02T23:13:37.344Z,18.15
2023-05-02T23:16:04.735Z,11.65
2023-05-02T23:18:31.619Z,16.70
2023-05-02T23:20:58.260Z,16.02
2023-05-02T23:23:24.920Z,12.27
2023-05-02T23:25:51.630Z,13.48
2023-05-02T23:28:18.247Z,14.48
2023-05-02T23:30:45.296Z,16.05
2023-05-02T23:33:12.169Z,15.57
2023-05-02T23:35:38.897Z,14.30
2023-05-02T23:38:07.719Z,19.65
2023-05-02T23:40:34.715Z,13.00
2023-05-02T23:43:01.639Z,18.20
2023-05-02T23:45:28.316Z,14.27
2023-05-02T23:47:55.711Z,13.52
2023-05-02T23:50:22.462Z,14.30
2023-05-02T23:52:49.126Z,17.33
2023-05-02T23:55:15.850Z,16.15
2023-05-02T23:57:42.627Z,12.23
